createdAt,value
2019-03-21T00:02:11.359Z,11.43
2019-03-21T00:04:48.133Z,11.15
2019-03-21T00:07:19.437Z,11.95
2019-03-21T00:10:12.553Z,11.90
2019-03-21T00:12:44.145Z,12.00
2019-03-21T00:15:21.558Z,11.68
2019-03-21T00:17:55.787Z,11.25
2019-03-21T00:20:27.175Z,10.75
2019-03-21T00:22:58.445Z,11.43
2019-03-21T00:25:29.706Z,10.78
2019-03-21T00:28:01.468Z,10.45
2019-03-21T00:30:32.611Z,10.68
2019-03-21T00:33:04.011Z,11.53
2019-03-21T00:35:35.745Z,12.28
2019-03-21T00:38:08.064Z,12.15
2019-03-21T00:40:44.021Z,12.58
2019-03-21T00:43:16.655Z,13.05
2019-03-21T00:45:48.928Z,14.95
2019-03-21T00:48:21.396Z,16.97
2019-03-21T00:50:52.777Z,16.45
2019-03-21T00:53:24.049Z,16.65
2019-03-21T00:55:58.456Z,16.73
2019-03-21T00:58:30.628Z,16.85
2019-03-21T01:01:07.967Z,17.70
2019-03-21T01:16:44.807Z,14.55
2019-03-21T01:19:15.960Z,14.15
2019-03-21T01:21:47.080Z,15.10
2019-03-21T01:24:18.357Z,13.93
2019-03-21T01:26:49.370Z,15.30
2019-03-21T01:29:20.498Z,14.10
2019-03-21T01:31:51.510Z,14.58
2019-03-21T01:34:23.334Z,14.05
2019-03-21T01:36:54.501Z,12.50
2019-03-21T01:39:25.699Z,13.50
2019-03-21T01:41:56.648Z,13.90
2019-03-21T01:44:28.704Z,13.90
2019-03-21T01:46:59.916Z,13.58
2019-03-21T01:49:30.970Z,14.95
2019-03-21T01:52:02.057Z,14.05
2019-03-21T01:54:33.105Z,14.68
2019-03-21T01:57:04.094Z,13.88
2019-03-21T01:59:35.301Z,14.75
2019-03-21T02:02:06.417Z,14.93
2019-03-21T02:04:37.527Z,15.38
2019-03-21T02:07:08.618Z,14.95
2019-03-21T02:09:39.850Z,14.68
2019-03-21T02:12:10.933Z,15.15
2019-03-21T02:14:51.823Z,15.58
2019-03-21T02:17:14.919Z,15.55
2019-03-21T02:19:46.000Z,15.95
2019-03-21T02:22:17.074Z,15.95
2019-03-21T02:24:48.269Z,15.88
2019-03-21T02:27:19.292Z,16.27
2019-03-21T02:29:50.338Z,16.32
2019-03-21T02:32:21.425Z,16.65
2019-03-21T02:34:52.518Z,15.32
2019-03-21T02:37:23.730Z,16.30
2019-03-21T02:39:59.891Z,16.95
2019-03-21T02:42:29.167Z,19.12
2019-03-21T02:45:08.431Z,20.55
2019-03-21T02:47:34.125Z,22.00
2019-03-21T02:50:08.519Z,20.90
2019-03-21T02:52:39.664Z,18.23
2019-03-21T02:55:11.864Z,19.75
2019-03-21T02:57:43.172Z,19.02
2019-03-21T03:00:23.268Z,20.43
2019-03-21T03:02:57.216Z,20.95
2019-03-21T03:05:31.837Z,20.08
2019-03-21T03:08:03.192Z,19.80
2019-03-21T03:10:49.518Z,19.37
2019-03-21T03:13:20.692Z,19.32
2019-03-21T03:15:52.894Z,18.77
2019-03-21T03:18:25.234Z,26.57
2019-03-21T03:20:56.396Z,20.02
2019-03-21T03:23:27.638Z,19.12
2019-03-21T03:26:00.313Z,20.27
2019-03-21T03:28:40.339Z,19.73
2019-03-21T03:31:11.403Z,20.72
2019-03-21T03:33:42.716Z,21.27
2019-03-21T03:36:15.871Z,21.87
2019-03-21T03:38:46.995Z,23.22
2019-03-21T03:41:20.180Z,26.75
2019-03-21T03:43:51.214Z,26.30
2019-03-21T03:46:22.401Z,25.80
2019-03-21T03:48:53.444Z,26.15
2019-03-21T03:51:24.553Z,23.35
2019-03-21T03:53:55.846Z,22.15
2019-03-21T03:56:27.077Z,20.80
2019-03-21T03:59:04.581Z,20.15
2019-03-21T04:01:35.721Z,19.65
2019-03-21T04:04:07.866Z,22.37
2019-03-21T04:06:40.500Z,22.70
2019-03-21T04:09:12.845Z,22.90
2019-03-21T04:11:45.310Z,27.40
2019-03-21T04:14:16.384Z,30.50
2019-03-21T04:16:47.642Z,29.72
2019-03-21T04:19:18.690Z,25.32
2019-03-21T04:21:49.901Z,24.00
2019-03-21T04:24:21.096Z,24.05
2019-03-21T04:26:52.140Z,23.00
2019-03-21T04:29:23.158Z,20.57
2019-03-21T04:31:54.403Z,20.65
2019-03-21T04:34:25.702Z,20.62
2019-03-21T04:36:56.777Z,21.30
2019-03-21T04:39:28.167Z,18.98
2019-03-21T04:41:59.401Z,21.02
2019-03-21T04:44:30.558Z,19.95
2019-03-21T04:47:03.235Z,20.57
2019-03-21T04:49:34.463Z,20.52
2019-03-21T04:52:06.085Z,19.07
2019-03-21T04:54:37.147Z,18.30
2019-03-21T04:57:08.363Z,19.48
2019-03-21T04:59:39.580Z,20.62
2019-03-21T05:02:10.803Z,20.95
2019-03-21T05:04:41.969Z,18.23
2019-03-21T05:07:13.140Z,18.87
2019-03-21T05:09:44.478Z,18.12
2019-03-21T05:12:15.625Z,16.95
2019-03-21T05:14:46.890Z,16.57
2019-03-21T05:17:19.746Z,17.52
2019-03-21T05:19:50.856Z,18.05
2019-03-21T05:22:22.045Z,17.65
2019-03-21T05:24:53.139Z,17.37
2019-03-21T05:27:24.269Z,16.82
2019-03-21T05:29:55.399Z,15.65
2019-03-21T05:32:26.455Z,18.30
2019-03-21T05:34:57.564Z,16.62
2019-03-21T05:37:28.878Z,16.55
2019-03-21T05:40:00.364Z,16.73
2019-03-21T05:42:31.720Z,15.48
2019-03-21T05:45:02.969Z,15.48
2019-03-21T05:47:34.436Z,14.40
2019-03-21T05:50:08.754Z,14.63
2019-03-21T05:52:40.155Z,14.07
2019-03-21T05:55:12.312Z,13.40
2019-03-21T05:57:44.414Z,14.43
2019-03-21T06:00:36.937Z,14.75
2019-03-21T06:03:11.665Z,15.18
2019-03-21T06:05:48.820Z,15.00
2019-03-21T06:08:23.494Z,15.03
2019-03-21T06:10:54.580Z,15.10
2019-03-21T06:13:25.649Z,14.25
2019-03-21T06:16:08.476Z,15.10
2019-03-21T06:19:04.327Z,14.35
2019-03-21T06:21:41.619Z,13.62
2019-03-21T06:24:28.225Z,14.55
2019-03-21T06:27:14.502Z,15.93
2019-03-21T06:29:41.642Z,14.87
2019-03-21T06:32:13.111Z,14.33
2019-03-21T06:34:44.662Z,15.60
2019-03-21T06:37:15.792Z,14.98
2019-03-21T06:39:46.982Z,14.58
2019-03-21T06:42:21.057Z,13.78
2019-03-21T06:44:52.212Z,14.20
2019-03-21T06:47:23.329Z,13.48
2019-03-21T06:49:54.446Z,13.70
2019-03-21T06:52:25.562Z,13.68
2019-03-21T06:54:56.708Z,12.28
2019-03-21T06:57:27.672Z,12.37
2019-03-21T06:59:58.831Z,12.58
2019-03-21T07:02:29.901Z,11.12
2019-03-21T07:05:01.213Z,11.10
2019-03-21T07:07:32.521Z,10.30
2019-03-21T07:10:05.306Z,9.90
2019-03-21T07:12:37.689Z,10.13
2019-03-21T07:15:11.747Z,10.08
2019-03-21T07:17:42.894Z,9.48
2019-03-21T07:20:16.633Z,8.78
2019-03-21T07:22:47.732Z,8.80
2019-03-21T07:25:18.969Z,9.05
2019-03-21T07:27:50.257Z,8.48
2019-03-21T07:30:21.456Z,8.05
2019-03-21T07:32:52.729Z,7.40
2019-03-21T07:35:23.927Z,6.50
2019-03-21T07:37:55.027Z,6.78
2019-03-21T07:40:26.152Z,7.35
2019-03-21T07:42:57.310Z,7.00
2019-03-21T07:45:28.884Z,7.00
2019-03-21T07:48:00.036Z,6.17
2019-03-21T07:50:31.142Z,6.37
2019-03-21T07:53:02.196Z,6.80
2019-03-21T07:55:34.508Z,5.65
2019-03-21T07:58:06.796Z,5.47
2019-03-21T08:00:38.663Z,5.12
2019-03-21T08:03:09.823Z,5.37
2019-03-21T08:05:41.028Z,5.83
2019-03-21T08:08:12.296Z,6.12
2019-03-21T08:10:43.719Z,5.97
2019-03-21T08:13:14.715Z,6.08
2019-03-21T08:15:45.949Z,6.62
2019-03-21T08:18:17.160Z,7.55
2019-03-21T08:20:57.320Z,7.10
2019-03-21T08:23:21.252Z,6.97
2019-03-21T08:25:52.527Z,6.83
2019-03-21T08:28:23.773Z,6.58
2019-03-21T08:31:06.486Z,16.20
2019-03-21T08:33:37.607Z,12.30
2019-03-21T08:36:08.762Z,6.50
2019-03-21T08:38:39.928Z,6.70
2019-03-21T08:41:11.344Z,6.50
2019-03-21T08:43:42.577Z,6.90
2019-03-21T08:46:13.698Z,6.10
2019-03-21T08:48:44.934Z,6.20
2019-03-21T08:51:15.961Z,6.60
2019-03-21T08:53:47.036Z,5.58
2019-03-21T08:56:18.181Z,5.53
2019-03-21T08:58:49.273Z,5.20
2019-03-21T09:01:20.467Z,6.10
2019-03-21T09:03:53.295Z,5.25
2019-03-21T09:06:24.505Z,6.08
2019-03-21T09:08:55.594Z,6.55
2019-03-21T09:11:26.852Z,5.47
2019-03-21T09:13:57.916Z,5.83
2019-03-21T09:16:28.970Z,6.50
2019-03-21T09:18:59.949Z,6.22
2019-03-21T09:21:32.699Z,6.65
2019-03-21T09:24:03.713Z,25.85
2019-03-21T09:26:35.836Z,8.70
2019-03-21T09:29:06.933Z,6.47
2019-03-21T09:31:38.035Z,6.65
2019-03-21T09:34:09.138Z,7.25
2019-03-21T09:36:40.357Z,7.58
2019-03-21T09:39:11.405Z,7.25
2019-03-21T09:41:42.603Z,8.60
2019-03-21T09:44:15.586Z,7.55
2019-03-21T09:46:50.982Z,8.33
2019-03-21T09:49:19.759Z,8.08
2019-03-21T09:51:51.568Z,8.50
2019-03-21T09:54:22.790Z,8.88
2019-03-21T09:56:54.804Z,7.28
2019-03-21T09:59:26.135Z,7.00
2019-03-21T10:01:57.621Z,7.00
2019-03-21T10:04:31.092Z,7.05
2019-03-21T10:07:06.213Z,7.00
2019-03-21T10:09:39.005Z,7.12
2019-03-21T10:12:10.466Z,7.33
2019-03-21T10:14:42.309Z,6.80
2019-03-21T10:17:13.539Z,7.10
2019-03-21T10:19:45.189Z,7.60
2019-03-21T10:22:16.458Z,7.25
2019-03-21T10:24:47.438Z,10.35
2019-03-21T10:27:18.306Z,9.43
2019-03-21T10:29:49.295Z,8.45
2019-03-21T10:32:20.482Z,8.68
2019-03-21T10:34:51.606Z,8.43
2019-03-21T10:37:22.824Z,8.68
2019-03-21T10:39:54.968Z,8.85
2019-03-21T10:42:26.179Z,9.15
2019-03-21T10:44:57.320Z,8.38
2019-03-21T10:47:28.417Z,7.37
2019-03-21T10:49:59.400Z,7.30
2019-03-21T10:52:32.059Z,8.13
2019-03-21T10:55:03.671Z,8.38
2019-03-21T10:57:34.868Z,8.43
2019-03-21T11:00:07.655Z,8.45
2019-03-21T11:02:38.757Z,6.53
2019-03-21T11:05:10.818Z,6.10
2019-03-21T11:07:41.964Z,6.47
2019-03-21T11:10:13.063Z,6.03
2019-03-21T11:12:44.326Z,6.05
2019-03-21T11:15:15.327Z,5.72
2019-03-21T11:17:46.548Z,6.67
2019-03-21T11:20:32.856Z,6.17
2019-03-21T11:23:04.525Z,6.42
2019-03-21T11:25:36.215Z,6.45
2019-03-21T11:28:07.341Z,6.97
2019-03-21T11:30:40.293Z,7.65
2019-03-21T11:33:11.871Z,9.50
2019-03-21T11:35:42.961Z,10.28
2019-03-21T11:38:14.135Z,9.83
2019-03-21T11:40:45.145Z,10.45
2019-03-21T11:43:16.252Z,9.35
2019-03-21T11:45:48.013Z,17.07
2019-03-21T11:48:19.535Z,9.33
2019-03-21T11:50:50.507Z,9.75
2019-03-21T11:53:22.580Z,9.58
2019-03-21T11:55:53.558Z,8.88
2019-03-21T11:58:24.814Z,9.55
2019-03-21T12:00:55.934Z,10.63
2019-03-21T12:03:27.075Z,8.58
2019-03-21T12:05:58.191Z,9.40
2019-03-21T12:08:29.406Z,10.18
2019-03-21T12:11:00.511Z,9.20
2019-03-21T12:13:31.605Z,9.65
2019-03-21T12:16:02.770Z,9.28
2019-03-21T12:18:35.025Z,9.20
2019-03-21T12:21:06.297Z,10.82
2019-03-21T12:23:38.082Z,11.80
2019-03-21T12:26:09.298Z,11.40
2019-03-21T12:28:40.665Z,10.95
2019-03-21T12:31:11.836Z,11.28
2019-03-21T12:33:43.460Z,11.28
2019-03-21T12:36:14.700Z,13.62
2019-03-21T12:38:45.943Z,13.15
2019-03-21T12:41:17.171Z,12.75
2019-03-21T12:43:50.417Z,11.05
2019-03-21T12:46:21.572Z,10.70
2019-03-21T12:48:58.123Z,11.00
2019-03-21T12:51:29.057Z,10.85
2019-03-21T12:54:00.196Z,11.00
2019-03-21T12:56:32.923Z,14.25
2019-03-21T12:59:07.309Z,15.63
2019-03-21T13:01:43.216Z,13.60
2019-03-21T13:04:14.367Z,14.95
2019-03-21T13:06:45.749Z,15.90
2019-03-21T13:09:16.857Z,16.17
2019-03-21T13:11:47.962Z,19.60
2019-03-21T13:14:19.119Z,17.65
2019-03-21T13:16:50.254Z,16.48
2019-03-21T13:19:21.445Z,15.70
2019-03-21T13:21:52.638Z,15.75
2019-03-21T13:24:23.832Z,13.58
2019-03-21T13:26:55.039Z,12.37
2019-03-21T13:29:27.285Z,9.20
2019-03-21T13:31:58.324Z,9.05
2019-03-21T13:34:29.494Z,9.08
2019-03-21T13:37:00.827Z,8.90
2019-03-21T13:39:31.939Z,8.33
2019-03-21T13:42:04.251Z,9.20
2019-03-21T13:44:35.376Z,9.85
2019-03-21T13:47:08.390Z,9.48
2019-03-21T13:49:39.387Z,10.35
2019-03-21T13:52:10.706Z,11.33
2019-03-21T13:54:42.782Z,10.93
2019-03-21T13:57:13.963Z,10.68
2019-03-21T13:59:45.114Z,10.53
2019-03-21T14:02:16.093Z,10.90
2019-03-21T14:04:47.193Z,10.68
2019-03-21T14:07:18.263Z,11.08
2019-03-21T14:09:49.321Z,10.78
2019-03-21T14:12:22.896Z,10.93
2019-03-21T14:14:54.087Z,11.22
2019-03-21T14:17:25.237Z,12.03
2019-03-21T14:19:56.384Z,12.65
2019-03-21T14:22:27.589Z,13.05
2019-03-21T14:24:58.685Z,13.20
2019-03-21T14:27:29.943Z,13.53
2019-03-21T14:30:02.202Z,14.33
2019-03-21T14:32:33.617Z,14.40
2019-03-21T14:35:06.395Z,14.85
2019-03-21T14:37:38.435Z,13.70
2019-03-21T14:40:12.587Z,13.72
2019-03-21T14:42:43.751Z,14.80
2019-03-21T14:45:16.505Z,14.75
2019-03-21T14:47:48.706Z,14.60
2019-03-21T14:50:19.902Z,16.67
2019-03-21T14:52:51.123Z,17.37
2019-03-21T14:55:22.291Z,16.73
2019-03-21T14:57:53.579Z,14.78
2019-03-21T15:00:24.710Z,14.83
2019-03-21T15:02:56.177Z,14.58
2019-03-21T15:05:27.332Z,14.53
2019-03-21T15:07:58.654Z,14.45
2019-03-21T15:10:29.912Z,14.33
2019-03-21T15:13:00.916Z,13.43
2019-03-21T15:15:32.402Z,11.10
2019-03-21T15:18:03.801Z,8.48
2019-03-21T15:20:34.978Z,10.00
2019-03-21T15:23:06.063Z,9.85
2019-03-21T15:25:37.331Z,10.38
2019-03-21T15:28:08.471Z,11.65
2019-03-21T15:30:39.515Z,11.25
2019-03-21T15:33:10.620Z,11.73
2019-03-21T15:35:41.927Z,12.07
2019-03-21T15:38:13.087Z,13.13
2019-03-21T15:40:44.426Z,12.25
2019-03-21T15:43:15.575Z,13.78
2019-03-21T15:45:47.248Z,14.40
2019-03-21T15:48:20.845Z,13.80
2019-03-21T15:51:03.601Z,13.50
2019-03-21T15:53:24.251Z,14.28
2019-03-21T15:55:55.414Z,13.32
2019-03-21T15:58:28.608Z,12.93
2019-03-21T16:00:59.951Z,12.60
2019-03-21T16:03:31.034Z,13.05
2019-03-21T16:06:03.960Z,13.95
2019-03-21T16:08:35.181Z,14.90
2019-03-21T16:11:06.407Z,15.45
2019-03-21T16:13:37.605Z,15.68
2019-03-21T16:16:08.704Z,15.48
2019-03-21T16:18:39.796Z,15.30
2019-03-21T16:21:11.167Z,15.38
2019-03-21T16:23:43.201Z,15.08
2019-03-21T16:26:15.347Z,16.30
2019-03-21T16:28:46.629Z,24.85
2019-03-21T16:31:17.770Z,15.53
2019-03-21T16:33:48.901Z,15.38
2019-03-21T16:36:23.331Z,16.15
2019-03-21T16:38:54.423Z,17.20
2019-03-21T16:41:25.557Z,18.12
2019-03-21T16:43:56.567Z,18.77
2019-03-21T16:46:27.724Z,20.00
2019-03-21T16:48:58.922Z,20.00
2019-03-21T16:51:30.078Z,20.82
2019-03-21T16:54:01.483Z,22.05
2019-03-21T16:56:32.645Z,22.17
2019-03-21T16:59:03.982Z,21.10
2019-03-21T17:01:35.164Z,20.68
2019-03-21T17:04:06.253Z,21.60
2019-03-21T17:06:37.535Z,19.92
2019-03-21T17:09:09.195Z,21.52
2019-03-21T17:11:43.576Z,21.23
2019-03-21T17:14:14.737Z,22.93
2019-03-21T17:16:45.971Z,21.57
2019-03-21T17:19:18.743Z,22.48
2019-03-21T17:21:49.882Z,24.98
2019-03-21T17:24:29.270Z,23.80
2019-03-21T17:26:54.027Z,24.50
2019-03-21T17:29:25.188Z,25.00
2019-03-21T17:31:56.267Z,25.70
2019-03-21T17:34:28.932Z,24.95
2019-03-21T17:37:01.808Z,22.85
2019-03-21T17:39:36.478Z,22.65
2019-03-21T17:42:08.148Z,21.65
2019-03-21T17:44:39.635Z,20.80
2019-03-21T17:47:10.812Z,21.35
2019-03-21T17:49:41.914Z,21.25
2019-03-21T17:52:13.072Z,19.98
2019-03-21T17:54:44.086Z,18.32
2019-03-21T17:57:33.869Z,17.35
2019-03-21T17:59:55.986Z,16.30
2019-03-21T18:02:27.163Z,13.43
2019-03-21T18:04:58.222Z,13.83
2019-03-21T18:07:29.385Z,14.10
2019-03-21T18:10:00.680Z,13.53
2019-03-21T18:12:33.586Z,12.90
2019-03-21T18:15:06.747Z,11.88
2019-03-21T18:17:37.990Z,13.25
2019-03-21T18:20:09.426Z,13.65
2019-03-21T18:22:41.066Z,13.60
2019-03-21T18:25:12.304Z,14.90
2019-03-21T18:27:43.633Z,14.87
2019-03-21T18:30:14.853Z,16.32
2019-03-21T18:32:47.308Z,16.23
2019-03-21T18:35:18.399Z,15.30
2019-03-21T18:37:49.909Z,15.15
2019-03-21T18:40:21.297Z,15.30
2019-03-21T18:42:52.480Z,15.68
2019-03-21T18:45:23.627Z,15.00
2019-03-21T18:47:54.753Z,14.15
2019-03-21T18:50:25.928Z,14.47
2019-03-21T18:52:57.069Z,14.60
2019-03-21T18:55:28.247Z,13.90
2019-03-21T18:57:59.405Z,14.28
2019-03-21T19:00:33.986Z,11.88
2019-03-21T19:03:05.371Z,11.33
2019-03-21T19:05:36.688Z,11.70
2019-03-21T19:08:07.758Z,11.85
2019-03-21T19:10:39.023Z,11.08
2019-03-21T19:13:10.678Z,10.15
2019-03-21T19:15:41.906Z,10.30
2019-03-21T19:18:13.171Z,10.20
2019-03-21T19:20:47.044Z,10.88
2019-03-21T19:23:18.177Z,11.18
2019-03-21T19:25:49.345Z,11.65
2019-03-21T19:28:20.493Z,11.05
2019-03-21T19:30:51.660Z,10.25
2019-03-21T19:33:23.118Z,10.23
2019-03-21T19:35:55.917Z,11.03
2019-03-21T19:38:26.982Z,10.03
2019-03-21T19:40:58.425Z,11.55
2019-03-21T19:43:29.589Z,9.48
2019-03-21T19:46:00.895Z,9.80
2019-03-21T19:48:49.746Z,10.65
2019-03-21T19:51:12.276Z,11.15
2019-03-21T19:53:44.615Z,10.70
2019-03-21T19:56:15.634Z,10.70
2019-03-21T19:58:47.958Z,11.30
2019-03-21T20:01:19.365Z,11.00
2019-03-21T20:03:50.645Z,10.23
2019-03-21T20:06:22.040Z,10.90
2019-03-21T20:08:53.186Z,10.70
2019-03-21T20:11:26.707Z,10.48
2019-03-21T20:13:59.442Z,11.25
2019-03-21T20:16:30.746Z,11.70
2019-03-21T20:19:01.915Z,11.68
2019-03-21T20:21:33.175Z,12.45
2019-03-21T20:24:04.383Z,12.03
2019-03-21T20:26:35.835Z,11.95
2019-03-21T20:29:08.759Z,11.95
2019-03-21T20:31:40.015Z,12.73
2019-03-21T20:34:12.846Z,12.13
2019-03-21T20:36:44.551Z,12.80
2019-03-21T20:39:15.800Z,12.80
2019-03-21T20:41:47.195Z,11.48
2019-03-21T20:44:18.588Z,11.50
2019-03-21T20:46:50.803Z,11.30
2019-03-21T20:49:21.952Z,11.50
2019-03-21T20:51:57.076Z,13.28
2019-03-21T20:54:28.448Z,12.03
2019-03-21T20:56:59.493Z,11.73
2019-03-21T20:59:30.736Z,12.28
2019-03-21T21:02:03.353Z,12.55
2019-03-21T21:04:35.061Z,11.83
2019-03-21T21:07:06.168Z,12.00
2019-03-21T21:09:37.328Z,11.73
2019-03-21T21:12:08.669Z,11.97
2019-03-21T21:14:40.059Z,11.20
2019-03-21T21:17:11.751Z,11.18
2019-03-21T21:19:43.193Z,11.53
2019-03-21T21:22:14.746Z,11.18
2019-03-21T21:24:47.355Z,11.50
2019-03-21T21:27:18.409Z,11.20
2019-03-21T21:29:49.755Z,11.90
2019-03-21T21:32:22.123Z,12.37
2019-03-21T21:34:54.777Z,11.35
2019-03-21T21:37:26.157Z,13.62
2019-03-21T21:39:57.708Z,11.85
2019-03-21T21:42:28.882Z,13.58
2019-03-21T21:45:00.629Z,13.48
2019-03-21T21:47:31.999Z,13.75
2019-03-21T21:50:04.316Z,12.23
2019-03-21T21:52:41.843Z,13.05
2019-03-21T21:55:09.183Z,12.13
2019-03-21T21:57:41.963Z,11.65
2019-03-21T22:00:18.569Z,11.15
2019-03-21T22:02:51.813Z,10.40
2019-03-21T22:05:23.066Z,10.40
2019-03-21T22:07:54.772Z,9.50
2019-03-21T22:10:29.392Z,10.08
2019-03-21T22:13:00.181Z,10.78
2019-03-21T22:15:32.114Z,11.28
2019-03-21T22:18:04.803Z,11.10
2019-03-21T22:20:36.040Z,12.30
2019-03-21T22:23:07.163Z,12.37
2019-03-21T22:25:38.441Z,12.68
2019-03-21T22:28:10.321Z,13.53
2019-03-21T22:30:41.811Z,14.00
2019-03-21T22:33:14.548Z,13.95
2019-03-21T22:35:46.068Z,14.55
2019-03-21T22:38:20.973Z,16.05
2019-03-21T22:40:52.382Z,17.02
2019-03-21T22:43:28.256Z,15.60
2019-03-21T22:45:59.642Z,16.42
2019-03-21T22:48:30.777Z,17.73
2019-03-21T22:51:03.160Z,16.15
2019-03-21T22:53:36.287Z,17.23
2019-03-21T22:56:07.803Z,17.65
2019-03-21T22:58:39.184Z,18.17
2019-03-21T23:01:10.256Z,17.80
2019-03-21T23:03:43.314Z,19.00
2019-03-21T23:06:28.156Z,18.02
2019-03-21T23:08:59.473Z,19.17
2019-03-21T23:11:31.129Z,19.07
2019-03-21T23:14:02.482Z,24.43
2019-03-21T23:16:33.859Z,19.05
2019-03-21T23:19:04.954Z,19.67
2019-03-21T23:21:35.971Z,19.10
2019-03-21T23:24:07.647Z,20.25
2019-03-21T23:26:38.926Z,20.30
2019-03-21T23:29:10.097Z,18.73
2019-03-21T23:31:41.306Z,18.98
2019-03-21T23:34:12.555Z,19.77
2019-03-21T23:36:44.810Z,19.95
2019-03-21T23:39:16.006Z,20.20
2019-03-21T23:41:47.709Z,21.00
2019-03-21T23:44:20.078Z,21.20
2019-03-21T23:46:51.251Z,21.33
2019-03-21T23:49:22.540Z,20.57
2019-03-21T23:51:53.668Z,20.25
2019-03-21T23:54:24.851Z,21.48
2019-03-21T23:57:04.046Z,21.02
2019-03-21T23:59:28.754Z,19.77
